sensor_id;sensor_type;location;lat;lon;timestamp;temperature;humidity
29813;DHT22;16707;48.106;11.548;2022-07-25T00:02:08;17.80;99.90
29813;DHT22;16707;48.106;11.548;2022-07-25T00:04:38;17.80;99.90
29813;DHT22;16707;48.106;11.548;2022-07-25T00:07:06;17.80;99.90
29813;DHT22;16707;48.106;11.548;2022-07-25T00:09:33;17.80;99.90
29813;DHT22;16707;48.106;11.548;2022-07-25T00:12:03;17.90;99.90
29813;DHT22;16707;48.106;11.548;2022-07-25T00:14:31;17.80;99.90
29813;DHT22;16707;48.106;11.548;2022-07-25T00:16:58;17.80;99.90
29813;DHT22;16707;48.106;11.548;2022-07-25T00:19:31;17.70;99.90
29813;DHT22;16707;48.106;11.548;2022-07-25T00:22:00;17.70;99.90
29813;DHT22;16707;48.106;11.548;2022-07-25T00:24:31;17.70;99.90
29813;DHT22;16707;48.106;11.548;2022-07-25T00:27:03;17.70;99.90
29813;DHT22;16707;48.106;11.548;2022-07-25T00:29:35;17.70;99.90
29813;DHT22;16707;48.106;11.548;2022-07-25T00:32:03;17.70;99.90
29813;DHT22;16707;48.106;11.548;2022-07-25T00:34:34;17.60;99.90
29813;DHT22;16707;48.106;11.548;2022-07-25T00:37:05;17.60;99.90
29813;DHT22;16707;48.106;11.548;2022-07-25T00:39:48;17.60;99.90
29813;DHT22;16707;48.106;11.548;2022-07-25T00:42:27;17.70;99.90
29813;DHT22;16707;48.106;11.548;2022-07-25T00:44:55;17.70;99.90
29813;DHT22;16707;48.106;11.548;2022-07-25T00:47:22;17.70;99.90
29813;DHT22;16707;48.106;11.548;2022-07-25T00:49:49;17.60;99.90
29813;DHT22;16707;48.106;11.548;2022-07-25T00:52:24;17.60;99.90
29813;DHT22;16707;48.106;11.548;2022-07-25T00:54:56;17.60;99.90
29813;DHT22;16707;48.106;11.548;2022-07-25T00:57:25;17.50;99.90
29813;DHT22;16707;48.106;11.548;2022-07-25T00:59:52;17.50;99.90
29813;DHT22;16707;48.106;11.548;2022-07-25T01:02:20;17.50;99.90
29813;DHT22;16707;48.106;11.548;2022-07-25T01:04:50;17.50;99.90
29813;DHT22;16707;48.106;11.548;2022-07-25T01:07:19;17.50;99.90
29813;DHT22;16707;48.106;11.548;2022-07-25T01:09:47;17.40;99.90
29813;DHT22;16707;48.106;11.548;2022-07-25T01:12:17;17.40;99.90
29813;DHT22;16707;48.106;11.548;2022-07-25T01:14:55;17.40;99.90
29813;DHT22;16707;48.106;11.548;2022-07-25T01:17:25;17.40;99.90
29813;DHT22;16707;48.106;11.548;2022-07-25T01:19:54;17.30;99.90
29813;DHT22;16707;48.106;11.548;2022-07-25T01:22:23;17.30;99.90
29813;DHT22;16707;48.106;11.548;2022-07-25T01:24:53;17.30;99.90
29813;DHT22;16707;48.106;11.548;2022-07-25T01:27:21;17.40;99.90
29813;DHT22;16707;48.106;11.548;2022-07-25T01:29:55;17.40;99.90
29813;DHT22;16707;48.106;11.548;2022-07-25T01:32:24;17.40;99.90
29813;DHT22;16707;48.106;11.548;2022-07-25T01:34:52;17.40;99.90
29813;DHT22;16707;48.106;11.548;2022-07-25T01:37:22;17.30;99.90
29813;DHT22;16707;48.106;11.548;2022-07-25T01:39:56;17.30;99.90
29813;DHT22;16707;48.106;11.548;2022-07-25T01:42:27;17.20;99.90
29813;DHT22;16707;48.106;11.548;2022-07-25T01:44:56;17.20;99.90
29813;DHT22;16707;48.106;11.548;2022-07-25T01:47:27;17.10;99.90
29813;DHT22;16707;48.106;11.548;2022-07-25T01:49:54;17.10;99.90
29813;DHT22;16707;48.106;11.548;2022-07-25T01:52:31;17.10;99.90
29813;DHT22;16707;48.106;11.548;2022-07-25T01:54:59;17.10;99.90
29813;DHT22;16707;48.106;11.548;2022-07-25T01:57:27;17.10;99.90
29813;DHT22;16707;48.106;11.548;2022-07-25T01:59:54;17.10;99.90
29813;DHT22;16707;48.106;11.548;2022-07-25T02:02:26;17.10;99.90
29813;DHT22;16707;48.106;11.548;2022-07-25T02:04:53;17.00;99.90
29813;DHT22;16707;48.106;11.548;2022-07-25T02:07:26;17.00;99.90
29813;DHT22;16707;48.106;11.548;2022-07-25T02:09:55;17.00;99.90
29813;DHT22;16707;48.106;11.548;2022-07-25T02:12:22;17.00;99.90
29813;DHT22;16707;48.106;11.548;2022-07-25T02:14:59;17.00;99.90
29813;DHT22;16707;48.106;11.548;2022-07-25T02:17:26;17.00;99.90
29813;DHT22;16707;48.106;11.548;2022-07-25T02:19:56;17.00;99.90
29813;DHT22;16707;48.106;11.548;2022-07-25T02:22:23;17.00;99.90
29813;DHT22;16707;48.106;11.548;2022-07-25T02:24:53;16.90;99.90
29813;DHT22;16707;48.106;11.548;2022-07-25T02:27:25;16.90;99.90
29813;DHT22;16707;48.106;11.548;2022-07-25T02:29:53;16.90;99.90
29813;DHT22;16707;48.106;11.548;2022-07-25T02:32:25;16.90;99.90
29813;DHT22;16707;48.106;11.548;2022-07-25T02:34:55;16.80;99.90
29813;DHT22;16707;48.106;11.548;2022-07-25T02:37:28;16.90;99.90
29813;DHT22;16707;48.106;11.548;2022-07-25T02:40:00;16.90;99.90
29813;DHT22;16707;48.106;11.548;2022-07-25T02:42:27;16.80;99.90
29813;DHT22;16707;48.106;11.548;2022-07-25T02:44:55;16.80;99.90
29813;DHT22;16707;48.106;11.548;2022-07-25T02:47:22;16.80;99.90
29813;DHT22;16707;48.106;11.548;2022-07-25T02:49:49;16.80;99.90
29813;DHT22;16707;48.106;11.548;2022-07-25T02:52:17;16.80;99.90
29813;DHT22;16707;48.106;11.548;2022-07-25T02:54:47;16.80;99.90
29813;DHT22;16707;48.106;11.548;2022-07-25T02:57:16;16.70;99.90
29813;DHT22;16707;48.106;11.548;2022-07-25T02:59:45;16.60;99.90
29813;DHT22;16707;48.106;11.548;2022-07-25T03:02:12;16.60;99.90
29813;DHT22;16707;48.106;11.548;2022-07-25T03:04:39;16.90;99.90
29813;DHT22;16707;48.106;11.548;2022-07-25T03:07:06;17.20;99.90
29813;DHT22;16707;48.106;11.548;2022-07-25T03:09:34;17.30;99.90
29813;DHT22;16707;48.106;11.548;2022-07-25T03:12:01;17.40;99.90
29813;DHT22;16707;48.106;11.548;2022-07-25T03:14:32;17.40;99.90
29813;DHT22;16707;48.106;11.548;2022-07-25T03:17:08;17.40;99.90
29813;DHT22;16707;48.106;11.548;2022-07-25T03:19:36;17.30;99.90
29813;DHT22;16707;48.106;11.548;2022-07-25T03:22:05;17.30;99.90
29813;DHT22;16707;48.106;11.548;2022-07-25T03:24:35;17.20;99.90
29813;DHT22;16707;48.106;11.548;2022-07-25T03:27:05;17.20;99.90
29813;DHT22;16707;48.106;11.548;2022-07-25T03:29:40;17.20;99.90
29813;DHT22;16707;48.106;11.548;2022-07-25T03:32:11;17.30;99.90
29813;DHT22;16707;48.106;11.548;2022-07-25T03:34:44;17.20;99.90
29813;DHT22;16707;48.106;11.548;2022-07-25T03:37:12;17.20;99.90
29813;DHT22;16707;48.106;11.548;2022-07-25T03:39:42;17.20;99.90
29813;DHT22;16707;48.106;11.548;2022-07-25T03:42:09;17.00;99.90
29813;DHT22;16707;48.106;11.548;2022-07-25T03:44:38;16.90;99.90
29813;DHT22;16707;48.106;11.548;2022-07-25T03:47:06;17.00;99.90
29813;DHT22;16707;48.106;11.548;2022-07-25T03:49:40;17.20;99.90
29813;DHT22;16707;48.106;11.548;2022-07-25T03:52:11;17.30;99.90
29813;DHT22;16707;48.106;11.548;2022-07-25T03:54:41;17.30;99.90
29813;DHT22;16707;48.106;11.548;2022-07-25T03:57:17;17.30;99.90
29813;DHT22;16707;48.106;11.548;2022-07-25T03:59:45;17.30;99.90
29813;DHT22;16707;48.106;11.548;2022-07-25T04:02:12;17.20;99.90
29813;DHT22;16707;48.106;11.548;2022-07-25T04:04:46;17.10;99.90
29813;DHT22;16707;48.106;11.548;2022-07-25T04:07:13;17.10;99.90
29813;DHT22;16707;48.106;11.548;2022-07-25T04:09:40;17.00;99.90
29813;DHT22;16707;48.106;11.548;2022-07-25T04:12:11;17.20;99.90
29813;DHT22;16707;48.106;11.548;2022-07-25T04:14:48;17.40;99.90
29813;DHT22;16707;48.106;11.548;2022-07-25T04:17:16;17.60;99.90
29813;DHT22;16707;48.106;11.548;2022-07-25T04:19:43;17.70;99.90
29813;DHT22;16707;48.106;11.548;2022-07-25T04:22:10;17.80;99.90
29813;DHT22;16707;48.106;11.548;2022-07-25T04:24:43;17.80;99.90
29813;DHT22;16707;48.106;11.548;2022-07-25T04:27:13;17.80;99.90
29813;DHT22;16707;48.106;11.548;2022-07-25T04:29:45;17.80;99.90
29813;DHT22;16707;48.106;11.548;2022-07-25T04:32:17;17.80;99.90
29813;DHT22;16707;48.106;11.548;2022-07-25T04:34:51;17.90;99.90
29813;DHT22;16707;48.106;11.548;2022-07-25T04:37:24;17.90;99.90
29813;DHT22;16707;48.106;11.548;2022-07-25T04:39:51;18.00;99.90
29813;DHT22;16707;48.106;11.548;2022-07-25T04:42:21;18.10;99.90
29813;DHT22;16707;48.106;11.548;2022-07-25T04:44:50;18.30;99.90
29813;DHT22;16707;48.106;11.548;2022-07-25T04:47:17;18.50;99.90
29813;DHT22;16707;48.106;11.548;2022-07-25T04:49:47;20.90;99.90
29813;DHT22;16707;48.106;11.548;2022-07-25T04:52:14;23.70;99.90
29813;DHT22;16707;48.106;11.548;2022-07-25T04:54:42;26.10;91.60
29813;DHT22;16707;48.106;11.548;2022-07-25T04:57:09;27.90;76.90
29813;DHT22;16707;48.106;11.548;2022-07-25T04:59:36;29.60;69.10
29813;DHT22;16707;48.106;11.548;2022-07-25T05:02:05;31.30;61.70
29813;DHT22;16707;48.106;11.548;2022-07-25T05:04:33;32.50;57.90
29813;DHT22;16707;48.106;11.548;2022-07-25T05:07:00;33.00;54.90
29813;DHT22;16707;48.106;11.548;2022-07-25T05:09:27;33.40;52.40
29813;DHT22;16707;48.106;11.548;2022-07-25T05:11:57;33.90;50.50
29813;DHT22;16707;48.106;11.548;2022-07-25T05:14:24;35.40;49.40
29813;DHT22;16707;48.106;11.548;2022-07-25T05:16:54;36.40;47.20
29813;DHT22;16707;48.106;11.548;2022-07-25T05:19:31;36.60;46.00
29813;DHT22;16707;48.106;11.548;2022-07-25T05:21:58;36.90;45.30
29813;DHT22;16707;48.106;11.548;2022-07-25T05:24:32;38.00;43.40
29813;DHT22;16707;48.106;11.548;2022-07-25T05:26:59;38.10;42.70
29813;DHT22;16707;48.106;11.548;2022-07-25T05:29:43;38.00;40.90
29813;DHT22;16707;48.106;11.548;2022-07-25T05:32:10;38.40;41.80
29813;DHT22;16707;48.106;11.548;2022-07-25T05:34:38;37.40;42.50
29813;DHT22;16707;48.106;11.548;2022-07-25T05:37:06;39.10;41.20
29813;DHT22;16707;48.106;11.548;2022-07-25T05:39:33;40.40;38.70
29813;DHT22;16707;48.106;11.548;2022-07-25T05:42:02;41.70;37.60
29813;DHT22;16707;48.106;11.548;2022-07-25T05:44:32;40.50;37.00
29813;DHT22;16707;48.106;11.548;2022-07-25T05:46:59;41.70;36.40
29813;DHT22;16707;48.106;11.548;2022-07-25T05:49:35;40.70;36.10
29813;DHT22;16707;48.106;11.548;2022-07-25T05:52:07;40.50;35.60
29813;DHT22;16707;48.106;11.548;2022-07-25T05:54:34;42.00;35.50
29813;DHT22;16707;48.106;11.548;2022-07-25T05:57:07;41.30;34.80
29813;DHT22;16707;48.106;11.548;2022-07-25T05:59:34;40.80;36.10
29813;DHT22;16707;48.106;11.548;2022-07-25T06:02:05;42.50;34.10
29813;DHT22;16707;48.106;11.548;2022-07-25T06:04:40;40.70;35.20
29813;DHT22;16707;48.106;11.548;2022-07-25T06:07:07;43.70;33.30
29813;DHT22;16707;48.106;11.548;2022-07-25T06:09:35;42.90;32.70
29813;DHT22;16707;48.106;11.548;2022-07-25T06:12:05;43.60;33.00
29813;DHT22;16707;48.106;11.548;2022-07-25T06:14:33;44.20;31.90
29813;DHT22;16707;48.106;11.548;2022-07-25T06:17:03;44.80;31.40
29813;DHT22;16707;48.106;11.548;2022-07-25T06:19:30;44.60;30.70
29813;DHT22;16707;48.106;11.548;2022-07-25T06:22:01;44.20;31.70
29813;DHT22;16707;48.106;11.548;2022-07-25T06:24:32;45.10;30.50
29813;DHT22;16707;48.106;11.548;2022-07-25T06:26:59;44.50;30.40
29813;DHT22;16707;48.106;11.548;2022-07-25T06:29:37;43.10;32.00
29813;DHT22;16707;48.106;11.548;2022-07-25T06:32:09;42.90;32.00
29813;DHT22;16707;48.106;11.548;2022-07-25T06:34:36;42.60;33.20
29813;DHT22;16707;48.106;11.548;2022-07-25T06:37:10;43.30;32.30
29813;DHT22;16707;48.106;11.548;2022-07-25T06:39:37;42.90;32.20
29813;DHT22;16707;48.106;11.548;2022-07-25T06:42:04;43.90;31.60
29813;DHT22;16707;48.106;11.548;2022-07-25T06:44:33;45.60;29.80
29813;DHT22;16707;48.106;11.548;2022-07-25T06:47:05;45.00;29.90
29813;DHT22;16707;48.106;11.548;2022-07-25T06:49:37;44.10;30.50
29813;DHT22;16707;48.106;11.548;2022-07-25T06:52:08;44.50;30.80
29813;DHT22;16707;48.106;11.548;2022-07-25T06:54:36;45.40;29.20
29813;DHT22;16707;48.106;11.548;2022-07-25T06:57:03;44.90;29.70
29813;DHT22;16707;48.106;11.548;2022-07-25T06:59:33;45.40;29.50
29813;DHT22;16707;48.106;11.548;2022-07-25T07:02:03;45.30;29.50
29813;DHT22;16707;48.106;11.548;2022-07-25T07:04:30;44.90;29.70
29813;DHT22;16707;48.106;11.548;2022-07-25T07:06:57;45.50;29.60
29813;DHT22;16707;48.106;11.548;2022-07-25T07:09:29;46.40;28.50
29813;DHT22;16707;48.106;11.548;2022-07-25T07:11:56;45.40;28.90
29813;DHT22;16707;48.106;11.548;2022-07-25T07:14:30;44.70;29.50
29813;DHT22;16707;48.106;11.548;2022-07-25T07:16:57;46.00;29.80
29813;DHT22;16707;48.106;11.548;2022-07-25T07:19:24;45.20;29.00
29813;DHT22;16707;48.106;11.548;2022-07-25T07:21:51;42.90;30.00
29813;DHT22;16707;48.106;11.548;2022-07-25T07:24:18;39.80;33.00
29813;DHT22;16707;48.106;11.548;2022-07-25T07:26:47;37.00;39.70
29813;DHT22;16707;48.106;11.548;2022-07-25T07:29:15;35.20;41.70
29813;DHT22;16707;48.106;11.548;2022-07-25T07:31:42;33.60;44.90
29813;DHT22;16707;48.106;11.548;2022-07-25T07:34:12;32.60;47.90
29813;DHT22;16707;48.106;11.548;2022-07-25T07:36:39;31.90;49.90
29813;DHT22;16707;48.106;11.548;2022-07-25T07:39:15;31.30;50.50
29813;DHT22;16707;48.106;11.548;2022-07-25T07:41:43;31.10;51.10
29813;DHT22;16707;48.106;11.548;2022-07-25T07:44:11;30.60;52.40
29813;DHT22;16707;48.106;11.548;2022-07-25T07:46:39;30.10;53.30
29813;DHT22;16707;48.106;11.548;2022-07-25T07:49:06;30.00;54.80
29813;DHT22;16707;48.106;11.548;2022-07-25T07:54:01;29.70;56.50
29813;DHT22;16707;48.106;11.548;2022-07-25T07:56:46;29.70;55.10
29813;DHT22;16707;48.106;11.548;2022-07-25T07:59:14;29.30;55.80
29813;DHT22;16707;48.106;11.548;2022-07-25T08:01:42;29.20;56.70
29813;DHT22;16707;48.106;11.548;2022-07-25T08:04:09;29.00;57.40
29813;DHT22;16707;48.106;11.548;2022-07-25T08:06:36;29.10;57.80
29813;DHT22;16707;48.106;11.548;2022-07-25T08:09:03;29.30;57.70
29813;DHT22;16707;48.106;11.548;2022-07-25T08:11:31;29.10;56.80
29813;DHT22;16707;48.106;11.548;2022-07-25T08:13:58;29.20;57.30
29813;DHT22;16707;48.106;11.548;2022-07-25T08:16:27;29.20;57.90
29813;DHT22;16707;48.106;11.548;2022-07-25T08:18:54;29.20;57.30
29813;DHT22;16707;48.106;11.548;2022-07-25T08:21:22;29.30;57.00
29813;DHT22;16707;48.106;11.548;2022-07-25T08:23:49;29.30;57.10
29813;DHT22;16707;48.106;11.548;2022-07-25T08:26:16;29.20;56.80
29813;DHT22;16707;48.106;11.548;2022-07-25T08:28:46;29.20;56.00
29813;DHT22;16707;48.106;11.548;2022-07-25T08:31:14;29.20;56.00
29813;DHT22;16707;48.106;11.548;2022-07-25T08:33:42;29.30;56.20
29813;DHT22;16707;48.106;11.548;2022-07-25T08:36:09;29.40;56.50
29813;DHT22;16707;48.106;11.548;2022-07-25T08:38:37;29.40;56.80
29813;DHT22;16707;48.106;11.548;2022-07-25T08:41:09;29.60;55.40
29813;DHT22;16707;48.106;11.548;2022-07-25T08:43:37;29.80;54.20
29813;DHT22;16707;48.106;11.548;2022-07-25T08:46:11;29.90;54.70
29813;DHT22;16707;48.106;11.548;2022-07-25T08:48:43;29.70;56.00
29813;DHT22;16707;48.106;11.548;2022-07-25T08:51:14;29.80;55.30
29813;DHT22;16707;48.106;11.548;2022-07-25T08:53:41;29.80;55.00
29813;DHT22;16707;48.106;11.548;2022-07-25T08:56:15;29.90;54.00
29813;DHT22;16707;48.106;11.548;2022-07-25T08:58:42;30.00;54.20
29813;DHT22;16707;48.106;11.548;2022-07-25T09:01:09;30.10;53.70
29813;DHT22;16707;48.106;11.548;2022-07-25T09:03:37;30.20;53.30
29813;DHT22;16707;48.106;11.548;2022-07-25T09:06:16;30.20;53.10
29813;DHT22;16707;48.106;11.548;2022-07-25T09:08:54;30.10;54.20
29813;DHT22;16707;48.106;11.548;2022-07-25T09:11:31;30.20;53.90
29813;DHT22;16707;48.106;11.548;2022-07-25T09:14:00;30.30;53.30
29813;DHT22;16707;48.106;11.548;2022-07-25T09:16:33;30.40;52.30
29813;DHT22;16707;48.106;11.548;2022-07-25T09:19:11;30.40;51.40
29813;DHT22;16707;48.106;11.548;2022-07-25T09:21:44;30.50;51.50
29813;DHT22;16707;48.106;11.548;2022-07-25T09:24:14;30.70;51.80
29813;DHT22;16707;48.106;11.548;2022-07-25T09:26:48;30.80;51.40
29813;DHT22;16707;48.106;11.548;2022-07-25T09:29:21;30.80;50.50
29813;DHT22;16707;48.106;11.548;2022-07-25T09:31:51;30.90;50.60
29813;DHT22;16707;48.106;11.548;2022-07-25T09:34:35;31.00;49.50
29813;DHT22;16707;48.106;11.548;2022-07-25T09:37:06;31.10;48.30
29813;DHT22;16707;48.106;11.548;2022-07-25T09:39:37;31.00;47.50
29813;DHT22;16707;48.106;11.548;2022-07-25T09:42:31;31.00;47.40
29813;DHT22;16707;48.106;11.548;2022-07-25T09:45:04;31.20;47.70
29813;DHT22;16707;48.106;11.548;2022-07-25T09:47:34;31.20;47.20
29813;DHT22;16707;48.106;11.548;2022-07-25T09:50:04;31.20;46.80
29813;DHT22;16707;48.106;11.548;2022-07-25T09:52:39;31.30;47.40
29813;DHT22;16707;48.106;11.548;2022-07-25T09:55:07;31.30;46.60
29813;DHT22;16707;48.106;11.548;2022-07-25T09:57:35;31.20;46.50
29813;DHT22;16707;48.106;11.548;2022-07-25T10:00:05;31.30;46.70
29813;DHT22;16707;48.106;11.548;2022-07-25T10:02:40;31.40;47.30
29813;DHT22;16707;48.106;11.548;2022-07-25T10:05:15;31.40;47.40
29813;DHT22;16707;48.106;11.548;2022-07-25T10:07:50;31.50;48.40
29813;DHT22;16707;48.106;11.548;2022-07-25T10:10:23;31.50;47.70
29813;DHT22;16707;48.106;11.548;2022-07-25T10:13:05;31.70;47.60
29813;DHT22;16707;48.106;11.548;2022-07-25T10:15:43;31.70;47.80
29813;DHT22;16707;48.106;11.548;2022-07-25T10:18:11;31.80;46.40
29813;DHT22;16707;48.106;11.548;2022-07-25T10:20:39;31.80;46.20
29813;DHT22;16707;48.106;11.548;2022-07-25T10:23:18;31.90;44.40
29813;DHT22;16707;48.106;11.548;2022-07-25T10:26:00;32.00;45.70
29813;DHT22;16707;48.106;11.548;2022-07-25T10:28:40;32.10;45.50
29813;DHT22;16707;48.106;11.548;2022-07-25T10:31:23;32.00;44.80
29813;DHT22;16707;48.106;11.548;2022-07-25T10:34:02;32.10;45.10
29813;DHT22;16707;48.106;11.548;2022-07-25T10:36:44;32.10;44.50
29813;DHT22;16707;48.106;11.548;2022-07-25T10:39:24;32.20;44.90
29813;DHT22;16707;48.106;11.548;2022-07-25T10:41:52;32.40;44.60
29813;DHT22;16707;48.106;11.548;2022-07-25T10:44:23;32.50;44.20
29813;DHT22;16707;48.106;11.548;2022-07-25T10:47:04;32.60;43.90
29813;DHT22;16707;48.106;11.548;2022-07-25T10:49:36;32.70;43.00
29813;DHT22;16707;48.106;11.548;2022-07-25T10:52:13;32.80;42.70
29813;DHT22;16707;48.106;11.548;2022-07-25T10:54:53;32.90;41.90
29813;DHT22;16707;48.106;11.548;2022-07-25T10:57:22;33.20;40.60
29813;DHT22;16707;48.106;11.548;2022-07-25T10:59:49;33.50;39.60
29813;DHT22;16707;48.106;11.548;2022-07-25T11:02:17;33.60;38.70
29813;DHT22;16707;48.106;11.548;2022-07-25T11:04:57;33.80;38.50
29813;DHT22;16707;48.106;11.548;2022-07-25T11:07:28;34.20;38.50
29813;DHT22;16707;48.106;11.548;2022-07-25T11:10:05;34.20;40.80
29813;DHT22;16707;48.106;11.548;2022-07-25T11:12:35;34.00;40.80
29813;DHT22;16707;48.106;11.548;2022-07-25T11:15:07;34.10;38.70
29813;DHT22;16707;48.106;11.548;2022-07-25T11:17:35;33.70;37.10
29813;DHT22;16707;48.106;11.548;2022-07-25T11:20:04;33.30;37.10
29813;DHT22;16707;48.106;11.548;2022-07-25T11:22:33;33.30;37.30
29813;DHT22;16707;48.106;11.548;2022-07-25T11:25:09;33.30;37.80
29813;DHT22;16707;48.106;11.548;2022-07-25T11:27:44;33.40;38.40
29813;DHT22;16707;48.106;11.548;2022-07-25T11:30:13;33.50;37.10
29813;DHT22;16707;48.106;11.548;2022-07-25T11:32:46;33.50;37.20
29813;DHT22;16707;48.106;11.548;2022-07-25T11:35:15;33.50;36.70
29813;DHT22;16707;48.106;11.548;2022-07-25T11:37:47;33.50;35.90
29813;DHT22;16707;48.106;11.548;2022-07-25T11:40:22;33.40;35.50
29813;DHT22;16707;48.106;11.548;2022-07-25T11:42:51;33.40;36.20
29813;DHT22;16707;48.106;11.548;2022-07-25T11:45:21;33.40;35.60
29813;DHT22;16707;48.106;11.548;2022-07-25T11:48:00;33.40;35.70
29813;DHT22;16707;48.106;11.548;2022-07-25T11:50:30;33.30;35.60
29813;DHT22;16707;48.106;11.548;2022-07-25T11:52:58;33.30;34.90
29813;DHT22;16707;48.106;11.548;2022-07-25T11:55:32;33.40;35.20
29813;DHT22;16707;48.106;11.548;2022-07-25T11:58:03;33.50;35.30
29813;DHT22;16707;48.106;11.548;2022-07-25T12:00:45;33.60;36.10
29813;DHT22;16707;48.106;11.548;2022-07-25T12:03:14;33.50;35.60
29813;DHT22;16707;48.106;11.548;2022-07-25T12:05:43;33.50;35.40
29813;DHT22;16707;48.106;11.548;2022-07-25T12:08:12;33.70;36.00
29813;DHT22;16707;48.106;11.548;2022-07-25T12:10:46;33.70;35.20
29813;DHT22;16707;48.106;11.548;2022-07-25T12:13:24;33.60;35.70
29813;DHT22;16707;48.106;11.548;2022-07-25T12:15:55;33.80;35.40
29813;DHT22;16707;48.106;11.548;2022-07-25T12:18:23;33.80;35.50
29813;DHT22;16707;48.106;11.548;2022-07-25T12:20:51;33.80;35.90
29813;DHT22;16707;48.106;11.548;2022-07-25T12:23:18;33.90;35.60
29813;DHT22;16707;48.106;11.548;2022-07-25T12:25:48;33.80;35.70
29813;DHT22;16707;48.106;11.548;2022-07-25T12:28:16;33.70;36.00
29813;DHT22;16707;48.106;11.548;2022-07-25T12:30:44;33.60;36.10
29813;DHT22;16707;48.106;11.548;2022-07-25T12:33:14;33.40;36.30
29813;DHT22;16707;48.106;11.548;2022-07-25T12:35:46;33.40;36.90
29813;DHT22;16707;48.106;11.548;2022-07-25T12:38:13;33.50;36.40
29813;DHT22;16707;48.106;11.548;2022-07-25T12:40:44;33.50;36.50
29813;DHT22;16707;48.106;11.548;2022-07-25T12:43:15;33.60;36.50
29813;DHT22;16707;48.106;11.548;2022-07-25T12:45:42;33.80;37.50
29813;DHT22;16707;48.106;11.548;2022-07-25T12:48:12;33.80;37.40
29813;DHT22;16707;48.106;11.548;2022-07-25T12:50:40;33.80;37.00
29813;DHT22;16707;48.106;11.548;2022-07-25T12:53:12;33.60;36.80
29813;DHT22;16707;48.106;11.548;2022-07-25T12:55:39;33.70;37.40
29813;DHT22;16707;48.106;11.548;2022-07-25T12:58:06;33.80;36.60
29813;DHT22;16707;48.106;11.548;2022-07-25T13:00:36;33.90;36.90
29813;DHT22;16707;48.106;11.548;2022-07-25T13:03:06;34.00;36.60
29813;DHT22;16707;48.106;11.548;2022-07-25T13:05:33;33.90;36.30
29813;DHT22;16707;48.106;11.548;2022-07-25T13:08:06;33.90;35.90
29813;DHT22;16707;48.106;11.548;2022-07-25T13:10:33;33.90;36.00
29813;DHT22;16707;48.106;11.548;2022-07-25T13:13:01;33.90;36.20
29813;DHT22;16707;48.106;11.548;2022-07-25T13:15:29;33.80;36.40
29813;DHT22;16707;48.106;11.548;2022-07-25T13:17:57;33.70;35.80
29813;DHT22;16707;48.106;11.548;2022-07-25T13:20:27;33.60;35.90
29813;DHT22;16707;48.106;11.548;2022-07-25T13:22:58;33.70;36.10
29813;DHT22;16707;48.106;11.548;2022-07-25T13:25:28;33.80;35.70
29813;DHT22;16707;48.106;11.548;2022-07-25T13:27:55;33.90;35.50
29813;DHT22;16707;48.106;11.548;2022-07-25T13:30:23;33.90;35.40
29813;DHT22;16707;48.106;11.548;2022-07-25T13:32:50;33.80;35.70
29813;DHT22;16707;48.106;11.548;2022-07-25T13:35:19;33.80;34.90
29813;DHT22;16707;48.106;11.548;2022-07-25T13:37:50;33.70;35.20
29813;DHT22;16707;48.106;11.548;2022-07-25T13:40:20;33.80;35.60
29813;DHT22;16707;48.106;11.548;2022-07-25T13:42:47;33.80;35.60
29813;DHT22;16707;48.106;11.548;2022-07-25T13:45:20;33.80;35.70
29813;DHT22;16707;48.106;11.548;2022-07-25T13:47:48;33.80;36.00
29813;DHT22;16707;48.106;11.548;2022-07-25T13:50:19;33.80;34.40
29813;DHT22;16707;48.106;11.548;2022-07-25T13:52:47;33.70;34.90
29813;DHT22;16707;48.106;11.548;2022-07-25T13:55:20;33.60;35.20
29813;DHT22;16707;48.106;11.548;2022-07-25T13:57:48;33.50;35.10
29813;DHT22;16707;48.106;11.548;2022-07-25T14:00:18;33.60;35.30
29813;DHT22;16707;48.106;11.548;2022-07-25T14:02:46;33.80;35.10
29813;DHT22;16707;48.106;11.548;2022-07-25T14:05:13;33.90;35.20
29813;DHT22;16707;48.106;11.548;2022-07-25T14:07:42;33.90;34.20
29813;DHT22;16707;48.106;11.548;2022-07-25T14:10:09;33.80;34.50
29813;DHT22;16707;48.106;11.548;2022-07-25T14:12:39;33.80;34.10
29813;DHT22;16707;48.106;11.548;2022-07-25T14:15:09;33.80;34.60
29813;DHT22;16707;48.106;11.548;2022-07-25T14:17:37;33.80;34.00
29813;DHT22;16707;48.106;11.548;2022-07-25T14:20:08;33.80;35.00
29813;DHT22;16707;48.106;11.548;2022-07-25T14:22:37;33.70;33.40
29813;DHT22;16707;48.106;11.548;2022-07-25T14:25:09;33.80;33.30
29813;DHT22;16707;48.106;11.548;2022-07-25T14:27:37;33.80;33.70
29813;DHT22;16707;48.106;11.548;2022-07-25T14:30:14;33.70;33.80
29813;DHT22;16707;48.106;11.548;2022-07-25T14:32:42;33.70;34.20
29813;DHT22;16707;48.106;11.548;2022-07-25T14:35:09;33.60;34.10
29813;DHT22;16707;48.106;11.548;2022-07-25T14:37:37;33.60;35.00
29813;DHT22;16707;48.106;11.548;2022-07-25T14:40:06;33.70;34.20
29813;DHT22;16707;48.106;11.548;2022-07-25T14:42:42;33.60;34.40
29813;DHT22;16707;48.106;11.548;2022-07-25T14:45:10;33.60;34.20
29813;DHT22;16707;48.106;11.548;2022-07-25T14:47:38;33.60;34.50
29813;DHT22;16707;48.106;11.548;2022-07-25T14:50:06;33.70;34.40
29813;DHT22;16707;48.106;11.548;2022-07-25T14:52:34;33.70;34.40
29813;DHT22;16707;48.106;11.548;2022-07-25T14:55:04;33.70;34.50
29813;DHT22;16707;48.106;11.548;2022-07-25T14:57:34;33.80;34.80
29813;DHT22;16707;48.106;11.548;2022-07-25T15:00:04;33.80;33.70
29813;DHT22;16707;48.106;11.548;2022-07-25T15:02:32;33.70;33.90
29813;DHT22;16707;48.106;11.548;2022-07-25T15:05:02;33.80;34.10
29813;DHT22;16707;48.106;11.548;2022-07-25T15:07:33;33.80;34.50
29813;DHT22;16707;48.106;11.548;2022-07-25T15:10:00;33.80;33.10
29813;DHT22;16707;48.106;11.548;2022-07-25T15:12:30;33.70;33.40
29813;DHT22;16707;48.106;11.548;2022-07-25T15:14:58;33.60;33.00
29813;DHT22;16707;48.106;11.548;2022-07-25T15:17:26;33.70;33.30
29813;DHT22;16707;48.106;11.548;2022-07-25T15:19:56;33.70;33.00
29813;DHT22;16707;48.106;11.548;2022-07-25T15:22:23;33.60;32.80
29813;DHT22;16707;48.106;11.548;2022-07-25T15:24:50;33.50;32.60
29813;DHT22;16707;48.106;11.548;2022-07-25T15:27:23;33.40;32.20
29813;DHT22;16707;48.106;11.548;2022-07-25T15:29:53;33.40;31.60
29813;DHT22;16707;48.106;11.548;2022-07-25T15:32:22;33.40;32.10
29813;DHT22;16707;48.106;11.548;2022-07-25T15:34:49;33.40;32.60
29813;DHT22;16707;48.106;11.548;2022-07-25T15:37:16;33.40;33.20